createdAt,value
2024-05-09T00:00:44.822Z,991.75
2024-05-09T00:01:44.705Z,991.74
2024-05-09T00:02:44.698Z,991.74
2024-05-09T00:03:44.906Z,991.73
2024-05-09T00:04:44.727Z,991.74
2024-05-09T00:05:44.901Z,991.73
2024-05-09T00:06:44.636Z,991.73
2024-05-09T00:07:44.658Z,991.73
2024-05-09T00:08:44.649Z,991.74
2024-05-09T00:09:44.613Z,991.74
2024-05-09T00:10:44.667Z,991.74
2024-05-09T00:11:44.621Z,991.74
2024-05-09T00:12:44.581Z,991.74
2024-05-09T00:13:44.618Z,991.73
2024-05-09T00:14:44.545Z,991.72
2024-05-09T00:15:44.541Z,991.72
2024-05-09T00:16:44.597Z,991.71
2024-05-09T00:17:44.922Z,991.72
2024-05-09T00:18:44.675Z,991.72
2024-05-09T00:19:44.561Z,991.72
2024-05-09T00:20:44.513Z,991.72
2024-05-09T00:21:44.466Z,991.71
2024-05-09T00:22:44.529Z,991.70
2024-05-09T00:23:44.500Z,991.70
2024-05-09T00:24:44.456Z,991.69
2024-05-09T00:25:44.777Z,991.68
2024-05-09T00:26:44.416Z,991.69
2024-05-09T00:27:44.429Z,991.69
2024-05-09T00:28:44.460Z,991.69
2024-05-09T00:29:44.386Z,991.69
2024-05-09T00:30:44.374Z,991.67
2024-05-09T00:31:44.379Z,991.67
2024-05-09T00:32:44.440Z,991.65
2024-05-09T00:33:44.578Z,991.64
2024-05-09T00:34:44.356Z,991.64
2024-05-09T00:35:44.414Z,991.63
2024-05-09T00:36:44.308Z,991.64
2024-05-09T00:37:44.352Z,991.64
2024-05-09T00:38:44.311Z,991.64
2024-05-09T00:39:44.308Z,991.64
2024-05-09T00:40:44.271Z,991.64
2024-05-09T00:41:44.302Z,991.64
2024-05-09T00:42:44.244Z,991.62
2024-05-09T00:43:44.288Z,991.61
2024-05-09T00:44:44.241Z,991.60
2024-05-09T00:45:44.439Z,991.59
2024-05-09T00:46:44.228Z,991.57
2024-05-09T00:47:44.354Z,991.57
2024-05-09T00:48:44.240Z,991.57
2024-05-09T00:49:44.327Z,991.56
2024-05-09T00:50:44.196Z,991.56
2024-05-09T00:51:44.155Z,991.56
2024-05-09T00:52:44.194Z,991.56
2024-05-09T00:53:44.152Z,991.55
2024-05-09T00:54:44.114Z,991.55
2024-05-09T00:55:44.249Z,991.54
2024-05-09T00:56:44.091Z,991.54
2024-05-09T00:57:44.081Z,991.54
2024-05-09T00:58:44.117Z,991.54
2024-05-09T00:59:44.080Z,991.54
2024-05-09T01:00:44.240Z,991.55
2024-05-09T01:01:44.369Z,991.55
2024-05-09T01:02:44.100Z,991.55
2024-05-09T01:03:45.262Z,991.55
2024-05-09T01:04:44.175Z,991.54
2024-05-09T01:05:44.279Z,991.54
2024-05-09T01:06:44.005Z,991.54
2024-05-09T01:07:44.023Z,991.53
2024-05-09T01:08:44.079Z,991.53
2024-05-09T01:09:43.957Z,991.53
2024-05-09T01:10:45.945Z,991.53
2024-05-09T01:11:44.042Z,991.52
2024-05-09T01:12:43.911Z,991.51
2024-05-09T01:13:43.995Z,991.51
2024-05-09T01:14:43.902Z,991.51
2024-05-09T01:15:43.900Z,991.51
2024-05-09T01:16:43.983Z,991.51
2024-05-09T01:17:44.107Z,991.52
2024-05-09T01:18:43.989Z,991.53
2024-05-09T01:19:43.901Z,991.54
2024-05-09T01:20:45.309Z,991.55
2024-05-09T01:21:43.851Z,991.56
2024-05-09T01:22:43.842Z,991.57
2024-05-09T01:23:43.844Z,991.57
2024-05-09T01:24:43.794Z,991.57
2024-05-09T01:25:43.994Z,991.57
2024-05-09T01:26:43.788Z,991.57
2024-05-09T01:27:43.764Z,991.57
2024-05-09T01:28:43.781Z,991.57
2024-05-09T01:29:44.928Z,991.57
2024-05-09T01:30:43.723Z,991.57
2024-05-09T01:31:43.773Z,991.57
2024-05-09T01:32:43.794Z,991.57
2024-05-09T01:33:43.813Z,991.58
2024-05-09T01:34:43.723Z,991.58
2024-05-09T01:35:43.723Z,991.59
2024-05-09T01:36:43.664Z,991.59
2024-05-09T01:37:43.675Z,991.60
2024-05-09T01:38:43.675Z,991.61
2024-05-09T01:39:43.632Z,991.62
2024-05-09T01:40:43.653Z,991.63
2024-05-09T01:41:43.616Z,991.63
2024-05-09T01:42:43.625Z,991.64
2024-05-09T01:43:43.606Z,991.64
2024-05-09T01:44:43.585Z,991.64
2024-05-09T01:45:43.567Z,991.64
2024-05-09T01:46:43.586Z,991.64
2024-05-09T01:47:43.749Z,991.64
2024-05-09T01:48:43.620Z,991.64
2024-05-09T01:49:43.774Z,991.65
2024-05-09T01:50:43.849Z,991.65
2024-05-09T01:51:43.497Z,991.65
2024-05-09T01:52:43.550Z,991.65
2024-05-09T01:53:43.542Z,991.65
2024-05-09T01:54:43.461Z,991.63
2024-05-09T01:55:43.622Z,991.63
2024-05-09T01:56:43.441Z,991.63
2024-05-09T01:57:43.439Z,991.63
2024-05-09T01:58:43.489Z,991.62
2024-05-09T01:59:43.415Z,991.62
2024-05-09T02:00:43.852Z,991.61
2024-05-09T02:01:56.213Z,991.60
2024-05-09T02:02:43.409Z,991.60
2024-05-09T02:03:43.521Z,991.59
2024-05-09T02:04:43.541Z,991.59
2024-05-09T02:05:43.474Z,991.58
2024-05-09T02:06:43.330Z,991.58
2024-05-09T02:07:43.361Z,991.59
2024-05-09T02:08:43.329Z,991.60
2024-05-09T02:09:43.317Z,991.60
2024-05-09T02:10:43.513Z,991.61
2024-05-09T02:11:43.358Z,991.62
2024-05-09T02:12:43.277Z,991.62
2024-05-09T02:13:43.296Z,991.63
2024-05-09T02:14:43.247Z,991.65
2024-05-09T02:15:43.262Z,991.66
2024-05-09T02:16:43.310Z,991.67
2024-05-09T02:17:43.327Z,991.68
2024-05-09T02:18:43.281Z,991.69
2024-05-09T02:19:43.245Z,991.69
2024-05-09T02:20:43.941Z,991.69
2024-05-09T02:21:43.172Z,991.70
2024-05-09T02:22:43.227Z,991.69
2024-05-09T02:23:43.203Z,991.69
2024-05-09T02:24:43.136Z,991.68
2024-05-09T02:25:43.162Z,991.68
2024-05-09T02:26:43.112Z,991.67
2024-05-09T02:27:43.105Z,991.67
2024-05-09T02:28:43.173Z,991.65
2024-05-09T02:29:43.096Z,991.65
2024-05-09T02:30:43.069Z,991.65
2024-05-09T02:31:43.236Z,991.65
2024-05-09T02:32:43.145Z,991.65
2024-05-09T02:33:43.202Z,991.65
2024-05-09T02:34:43.051Z,991.65
2024-05-09T02:35:43.948Z,991.65
2024-05-09T02:36:42.996Z,991.64
2024-05-09T02:37:43.078Z,991.62
2024-05-09T02:38:43.103Z,991.61
2024-05-09T02:39:42.975Z,991.60
2024-05-09T02:40:43.042Z,991.59
2024-05-09T02:41:42.949Z,991.59
2024-05-09T02:42:42.934Z,991.59
2024-05-09T02:43:43.011Z,991.59
2024-05-09T02:44:42.912Z,991.59
2024-05-09T02:45:42.901Z,991.60
2024-05-09T02:46:42.890Z,991.60
2024-05-09T02:47:43.114Z,991.60
2024-05-09T02:48:42.950Z,991.59
2024-05-09T02:49:43.022Z,991.58
2024-05-09T02:50:42.857Z,991.57
2024-05-09T02:51:42.863Z,991.57
2024-05-09T02:52:42.834Z,991.58
2024-05-09T02:53:42.841Z,991.57
2024-05-09T02:54:42.796Z,991.57
2024-05-09T02:55:43.358Z,991.58
2024-05-09T02:56:42.812Z,991.58
2024-05-09T02:57:42.783Z,991.58
2024-05-09T02:58:42.813Z,991.58
2024-05-09T02:59:42.761Z,991.58
2024-05-09T03:00:43.221Z,991.60
2024-05-09T03:01:42.850Z,991.60
2024-05-09T03:02:42.930Z,991.60
2024-05-09T03:03:43.040Z,991.61
2024-05-09T03:04:42.753Z,991.61
2024-05-09T03:05:42.976Z,991.61
2024-05-09T03:06:42.670Z,991.61
2024-05-09T03:07:42.671Z,991.62
2024-05-09T03:08:42.647Z,991.61
2024-05-09T03:09:42.637Z,991.61
2024-05-09T03:10:42.898Z,991.62
2024-05-09T03:11:42.666Z,991.63
2024-05-09T03:12:42.574Z,991.63
2024-05-09T03:13:42.592Z,991.63
2024-05-09T03:14:42.593Z,991.62
2024-05-09T03:15:42.907Z,991.62
2024-05-09T03:16:42.511Z,991.63
2024-05-09T03:17:42.632Z,991.63
2024-05-09T03:18:42.811Z,991.63
2024-05-09T03:19:42.528Z,991.62
2024-05-09T03:20:42.527Z,991.62
2024-05-09T03:21:42.458Z,991.61
2024-05-09T03:22:42.448Z,991.62
2024-05-09T03:23:42.472Z,991.62
2024-05-09T03:24:42.418Z,991.63
2024-05-09T03:25:42.401Z,991.63
2024-05-09T03:26:42.392Z,991.63
2024-05-09T03:27:42.397Z,991.64
2024-05-09T03:28:42.383Z,991.64
2024-05-09T03:29:42.364Z,991.65
2024-05-09T03:30:43.338Z,991.65
2024-05-09T03:31:42.367Z,991.65
2024-05-09T03:32:42.504Z,991.65
2024-05-09T03:33:42.663Z,991.65
2024-05-09T03:34:42.307Z,991.64
2024-05-09T03:35:42.351Z,991.64
2024-05-09T03:36:42.295Z,991.64
2024-05-09T03:37:42.267Z,991.64
2024-05-09T03:38:42.345Z,991.65
2024-05-09T03:39:42.256Z,991.65
2024-05-09T03:40:42.239Z,991.66
2024-05-09T03:41:42.274Z,991.65
2024-05-09T03:42:42.214Z,991.65
2024-05-09T03:43:42.210Z,991.65
2024-05-09T03:44:42.245Z,991.64
2024-05-09T03:45:42.196Z,991.63
2024-05-09T03:46:42.177Z,991.62
2024-05-09T03:47:42.511Z,991.61
2024-05-09T03:48:42.222Z,991.61
2024-05-09T03:49:42.169Z,991.62
2024-05-09T03:50:42.236Z,991.62
2024-05-09T03:51:42.118Z,991.62
2024-05-09T03:52:42.119Z,991.62
2024-05-09T03:53:42.127Z,991.62
2024-05-09T03:54:42.085Z,991.63
2024-05-09T03:55:42.090Z,991.63
2024-05-09T03:56:42.142Z,991.63
2024-05-09T03:57:42.057Z,991.63
2024-05-09T03:58:42.068Z,991.63
2024-05-09T03:59:42.047Z,991.64
2024-05-09T04:00:42.348Z,991.64
2024-05-09T04:01:42.199Z,991.64
2024-05-09T04:02:42.122Z,991.64
2024-05-09T04:03:42.159Z,991.64
2024-05-09T04:04:42.003Z,991.65
2024-05-09T04:05:43.146Z,991.65
2024-05-09T04:06:41.972Z,991.66
2024-05-09T04:07:41.938Z,991.67
2024-05-09T04:08:42.001Z,991.68
2024-05-09T04:09:41.915Z,991.69
2024-05-09T04:10:41.929Z,991.70
2024-05-09T04:11:42.017Z,991.72
2024-05-09T04:12:41.886Z,991.72
2024-05-09T04:13:41.885Z,991.73
2024-05-09T04:14:41.911Z,991.73
2024-05-09T04:15:41.849Z,991.72
2024-05-09T04:16:41.847Z,991.72
2024-05-09T04:17:41.974Z,991.72
2024-05-09T04:18:41.959Z,991.72
2024-05-09T04:19:41.848Z,991.72
2024-05-09T04:20:41.926Z,991.73
2024-05-09T04:21:41.788Z,991.73
2024-05-09T04:22:41.787Z,991.72
2024-05-09T04:23:41.926Z,991.72
2024-05-09T04:24:41.760Z,991.72
2024-05-09T04:25:41.748Z,991.72
2024-05-09T04:26:41.814Z,991.72
2024-05-09T04:27:41.751Z,991.71
2024-05-09T04:28:41.714Z,991.71
2024-05-09T04:29:41.699Z,991.71
2024-05-09T04:30:42.541Z,991.71
2024-05-09T04:31:41.684Z,991.71
2024-05-09T04:32:41.855Z,991.71
2024-05-09T04:33:41.769Z,991.72
2024-05-09T04:34:41.760Z,991.72
2024-05-09T04:35:41.656Z,991.73
2024-05-09T04:36:44.389Z,991.75
2024-05-09T04:37:41.609Z,991.77
2024-05-09T04:38:41.679Z,991.79
2024-05-09T04:39:41.591Z,991.81
2024-05-09T04:40:41.593Z,991.82
2024-05-09T04:41:41.564Z,991.82
2024-05-09T04:42:41.572Z,991.83
2024-05-09T04:43:41.550Z,991.83
2024-05-09T04:44:41.573Z,991.83
2024-05-09T04:45:41.565Z,991.84
2024-05-09T04:46:41.518Z,991.84
2024-05-09T04:47:41.722Z,991.85
2024-05-09T04:48:41.605Z,991.86
2024-05-09T04:49:41.549Z,991.88
2024-05-09T04:50:41.596Z,991.91
2024-05-09T04:51:41.458Z,991.93
2024-05-09T04:52:41.450Z,991.95
2024-05-09T04:53:41.540Z,991.96
2024-05-09T04:54:41.451Z,991.97
2024-05-09T04:55:41.422Z,991.99
2024-05-09T04:56:41.451Z,992.01
2024-05-09T04:57:41.403Z,992.03
2024-05-09T04:58:41.386Z,992.04
2024-05-09T04:59:41.415Z,992.05
2024-05-09T05:00:41.848Z,992.05
2024-05-09T05:01:41.346Z,992.04
2024-05-09T05:02:41.421Z,992.04
2024-05-09T05:03:41.474Z,992.04
2024-05-09T05:04:41.462Z,992.04
2024-05-09T05:05:41.750Z,992.05
2024-05-09T05:06:41.292Z,992.04
2024-05-09T05:07:41.288Z,992.04
2024-05-09T05:08:41.343Z,992.05
2024-05-09T05:09:41.258Z,992.04
2024-05-09T05:10:41.294Z,992.04
2024-05-09T05:11:41.321Z,992.04
2024-05-09T05:12:41.240Z,992.03
2024-05-09T05:13:41.760Z,992.03
2024-05-09T05:14:41.260Z,992.03
2024-05-09T05:15:41.190Z,992.03
2024-05-09T05:16:41.220Z,992.02
2024-05-09T05:17:41.363Z,992.03
2024-05-09T05:18:41.293Z,992.03
2024-05-09T05:19:41.422Z,992.04
2024-05-09T05:20:41.200Z,992.05
2024-05-09T05:21:41.133Z,992.06
2024-05-09T05:22:41.131Z,992.06
2024-05-09T05:23:41.286Z,992.06
2024-05-09T05:24:41.098Z,992.06
2024-05-09T05:25:41.091Z,992.06
2024-05-09T05:26:41.135Z,992.05
2024-05-09T05:27:41.086Z,992.05
2024-05-09T05:28:41.073Z,992.06
2024-05-09T05:29:41.110Z,992.07
2024-05-09T05:30:41.144Z,992.08
2024-05-09T05:31:41.044Z,992.10
2024-05-09T05:32:41.136Z,992.11
2024-05-09T05:33:41.154Z,992.11
2024-05-09T05:34:41.025Z,992.11
2024-05-09T05:35:41.031Z,992.11
2024-05-09T05:36:40.968Z,992.11
2024-05-09T05:37:40.965Z,992.11
2024-05-09T05:38:41.049Z,992.11
2024-05-09T05:39:40.944Z,992.11
2024-05-09T05:40:41.325Z,992.12
2024-05-09T05:41:40.946Z,992.12
2024-05-09T05:42:40.910Z,992.13
2024-05-09T05:43:40.902Z,992.14
2024-05-09T05:44:40.973Z,992.14
2024-05-09T05:45:40.874Z,992.16
2024-05-09T05:46:40.865Z,992.16
2024-05-09T05:47:41.074Z,992.16
2024-05-09T05:48:41.032Z,992.15
2024-05-09T05:49:40.995Z,992.15
2024-05-09T05:50:40.863Z,992.15
2024-05-09T05:51:40.818Z,992.15
2024-05-09T05:52:40.818Z,992.15
2024-05-09T05:53:40.940Z,992.16
2024-05-09T05:54:40.775Z,992.16
2024-05-09T05:55:40.858Z,992.16
2024-05-09T05:56:40.836Z,992.18
2024-05-09T05:57:40.751Z,992.20
2024-05-09T05:58:40.743Z,992.21
2024-05-09T05:59:40.837Z,992.22
2024-05-09T06:00:41.626Z,992.23
2024-05-09T06:01:40.699Z,992.23
2024-05-09T06:02:40.905Z,992.23
2024-05-09T06:03:40.926Z,992.23
2024-05-09T06:04:40.726Z,992.22
2024-05-09T06:05:41.216Z,992.22
2024-05-09T06:06:40.652Z,992.22
2024-05-09T06:07:40.637Z,992.22
2024-05-09T06:08:40.697Z,992.22
2024-05-09T06:09:40.655Z,992.22
2024-05-09T06:10:41.642Z,992.22
2024-05-09T06:11:40.703Z,992.23
2024-05-09T06:12:40.581Z,992.23
2024-05-09T06:13:40.567Z,992.22
2024-05-09T06:14:40.595Z,992.22
2024-05-09T06:15:40.926Z,992.22
2024-05-09T06:16:40.563Z,992.22
2024-05-09T06:17:40.652Z,992.23
2024-05-09T06:18:40.647Z,992.23
2024-05-09T06:19:40.558Z,992.23
2024-05-09T06:20:40.725Z,992.23
2024-05-09T06:21:40.515Z,992.23
2024-05-09T06:22:40.473Z,992.23
2024-05-09T06:23:40.579Z,992.23
2024-05-09T06:24:40.454Z,992.23
2024-05-09T06:25:40.449Z,992.22
2024-05-09T06:26:40.487Z,992.22
2024-05-09T06:27:40.443Z,992.21
2024-05-09T06:28:40.410Z,992.21
2024-05-09T06:29:40.501Z,992.21
2024-05-09T06:30:42.269Z,992.22
2024-05-09T06:31:40.378Z,992.21
2024-05-09T06:32:40.528Z,992.21
2024-05-09T06:33:40.611Z,992.19
2024-05-09T06:34:40.452Z,992.18
2024-05-09T06:35:40.813Z,992.17
2024-05-09T06:36:40.325Z,992.17
2024-05-09T06:37:40.323Z,992.17
2024-05-09T06:38:40.392Z,992.17
2024-05-09T06:39:40.290Z,992.17
2024-05-09T06:40:41.987Z,992.18
2024-05-09T06:41:40.352Z,992.18
2024-05-09T06:42:40.277Z,992.19
2024-05-09T06:43:40.247Z,992.19
2024-05-09T06:44:40.331Z,992.19
2024-05-09T06:45:40.386Z,992.19
2024-05-09T06:46:40.308Z,992.19
2024-05-09T06:47:40.473Z,992.19
2024-05-09T06:48:40.582Z,992.18
2024-05-09T06:49:40.220Z,992.17
2024-05-09T06:50:40.639Z,992.17
2024-05-09T06:51:40.154Z,992.15
2024-05-09T06:52:40.144Z,992.14
2024-05-09T06:53:40.297Z,992.13
2024-05-09T06:54:40.133Z,992.13
2024-05-09T06:55:40.140Z,992.12
2024-05-09T06:56:40.170Z,992.11
2024-05-09T06:57:43.006Z,992.10
2024-05-09T06:58:40.106Z,992.10
2024-05-09T06:59:40.116Z,992.10
2024-05-09T07:00:41.720Z,992.10
2024-05-09T07:01:40.093Z,992.11
2024-05-09T07:02:40.176Z,992.11
2024-05-09T07:03:40.111Z,992.12
2024-05-09T07:04:40.101Z,992.12
2024-05-09T07:05:40.060Z,992.12
2024-05-09T07:06:39.988Z,992.13
2024-05-09T07:07:39.981Z,992.13
2024-05-09T07:08:40.124Z,992.14
2024-05-09T07:09:39.954Z,992.14
2024-05-09T07:10:39.960Z,992.15
2024-05-09T07:11:39.995Z,992.15
2024-05-09T07:12:39.923Z,992.14
2024-05-09T07:13:39.916Z,992.14
2024-05-09T07:14:40.040Z,992.13
2024-05-09T07:15:39.928Z,992.12
2024-05-09T07:16:39.888Z,992.10
2024-05-09T07:17:39.952Z,992.09
2024-05-09T07:18:40.058Z,992.08
2024-05-09T07:19:39.923Z,992.07
2024-05-09T07:20:40.022Z,992.06
2024-05-09T07:21:39.842Z,992.05
2024-05-09T07:22:39.816Z,992.05
2024-05-09T07:23:40.149Z,992.05
2024-05-09T07:24:39.788Z,992.05
2024-05-09T07:25:39.818Z,992.04
2024-05-09T07:26:39.813Z,992.03
2024-05-09T07:27:39.767Z,992.03
2024-05-09T07:28:39.750Z,992.03
2024-05-09T07:29:39.775Z,992.02
2024-05-09T07:30:39.727Z,992.01
2024-05-09T07:31:39.731Z,992.00
2024-05-09T07:32:39.817Z,991.99
2024-05-09T07:33:39.806Z,991.98
2024-05-09T07:34:39.709Z,991.97
2024-05-09T07:35:39.860Z,991.97
2024-05-09T07:36:39.671Z,991.97
2024-05-09T07:37:39.652Z,991.96
2024-05-09T07:38:39.778Z,991.96
2024-05-09T07:39:39.635Z,991.96
2024-05-09T07:40:39.634Z,991.96
2024-05-09T07:41:39.733Z,991.95
2024-05-09T07:42:39.611Z,991.95
2024-05-09T07:43:39.589Z,991.96
2024-05-09T07:44:39.636Z,991.96
2024-05-09T07:45:48.961Z,991.96
2024-05-09T07:47:47.660Z,991.96
2024-05-09T07:51:02.851Z,991.95
2024-05-09T07:53:34.362Z,991.95
2024-05-09T07:53:50.774Z,991.93
2024-05-09T07:54:00.683Z,991.91
2024-05-09T07:54:57.243Z,991.89
2024-05-09T07:55:57.501Z,991.88
2024-05-09T07:56:57.403Z,991.87
2024-05-09T07:57:57.245Z,991.85
2024-05-09T07:58:57.143Z,991.84
2024-05-09T07:59:57.115Z,991.85
2024-05-09T08:00:57.185Z,991.86
2024-05-09T08:01:57.161Z,991.85
2024-05-09T08:02:57.102Z,991.84
2024-05-09T08:03:57.374Z,991.82
2024-05-09T08:04:57.178Z,991.81
2024-05-09T08:05:57.064Z,991.82
2024-05-09T08:06:57.106Z,991.81
2024-05-09T08:07:57.048Z,991.80
2024-05-09T08:08:59.152Z,991.79
2024-05-09T08:09:57.030Z,991.78
2024-05-09T08:10:56.988Z,991.76
2024-05-09T08:11:56.998Z,991.77
2024-05-09T08:12:56.979Z,991.77
2024-05-09T08:13:57.058Z,991.76
2024-05-09T08:14:57.155Z,991.75
2024-05-09T08:15:57.162Z,991.75
2024-05-09T08:16:56.995Z,991.74
2024-05-09T08:17:57.255Z,991.75
2024-05-09T08:18:57.110Z,991.74
2024-05-09T08:19:57.003Z,991.76
2024-05-09T08:20:57.103Z,991.77
2024-05-09T08:21:56.995Z,991.75
2024-05-09T08:22:56.893Z,991.74
2024-05-09T08:23:56.978Z,991.73
2024-05-09T08:24:56.890Z,991.73
2024-05-09T08:25:56.825Z,991.72
2024-05-09T08:26:56.810Z,991.72
2024-05-09T08:27:56.974Z,991.71
2024-05-09T08:28:56.781Z,991.69
2024-05-09T08:29:56.820Z,991.65
2024-05-09T08:30:56.913Z,991.66
2024-05-09T08:31:56.870Z,991.67
2024-05-09T08:32:56.857Z,991.69
2024-05-09T08:33:56.834Z,991.71
2024-05-09T08:34:56.882Z,991.68
2024-05-09T08:35:56.717Z,991.65
2024-05-09T08:36:59.650Z,991.64
2024-05-09T08:37:56.761Z,991.64
2024-05-09T08:38:56.683Z,991.64
2024-05-09T08:39:56.762Z,991.64
2024-05-09T08:40:56.830Z,991.64
2024-05-09T08:41:56.645Z,991.69
2024-05-09T08:42:56.784Z,991.68
2024-05-09T08:43:56.637Z,991.68
2024-05-09T08:44:56.610Z,991.67
2024-05-09T08:45:56.631Z,991.66
2024-05-09T08:46:56.633Z,991.68
2024-05-09T08:47:56.715Z,991.67
2024-05-09T08:48:56.788Z,991.67
2024-05-09T08:49:56.680Z,991.66
2024-05-09T08:50:56.629Z,991.66
2024-05-09T08:51:56.658Z,991.68
2024-05-09T08:52:56.536Z,991.68
2024-05-09T08:53:56.549Z,991.67
2024-05-09T08:54:56.561Z,991.67
2024-05-09T08:55:56.565Z,991.66
2024-05-09T08:56:56.524Z,991.67
2024-05-09T08:57:56.496Z,991.68
2024-05-09T08:58:56.488Z,991.68
2024-05-09T08:59:56.477Z,991.67
2024-05-09T09:00:56.538Z,991.66
2024-05-09T09:01:56.577Z,991.67
2024-05-09T09:02:56.490Z,991.66
2024-05-09T09:03:56.529Z,991.67
2024-05-09T09:04:56.481Z,991.67
2024-05-09T09:05:56.481Z,991.67
2024-05-09T09:06:58.144Z,991.65
2024-05-09T09:07:56.360Z,991.65
2024-05-09T09:08:56.499Z,991.66
2024-05-09T09:09:56.428Z,991.66
2024-05-09T09:10:56.375Z,991.67
2024-05-09T09:11:56.374Z,991.67
2024-05-09T09:12:56.388Z,991.64
2024-05-09T09:13:56.306Z,991.64
2024-05-09T09:14:56.302Z,991.63
2024-05-09T09:15:56.365Z,991.65
2024-05-09T09:16:56.264Z,991.65
2024-05-09T09:17:56.356Z,991.63
2024-05-09T09:18:56.406Z,991.61
2024-05-09T09:19:56.348Z,991.59
2024-05-09T09:20:56.231Z,991.59
2024-05-09T09:21:56.241Z,991.58
2024-05-09T09:22:56.280Z,991.55
2024-05-09T09:23:56.188Z,991.52
2024-05-09T09:24:56.226Z,991.51
2024-05-09T09:25:56.270Z,991.52
2024-05-09T09:26:56.156Z,991.50
2024-05-09T09:27:56.210Z,991.52
2024-05-09T09:28:56.155Z,991.51
2024-05-09T09:29:56.114Z,991.48
2024-05-09T09:30:56.164Z,991.42
2024-05-09T09:31:56.134Z,991.42
2024-05-09T09:32:56.160Z,991.42
2024-05-09T09:33:56.217Z,991.46
2024-05-09T09:34:56.279Z,991.47
2024-05-09T09:35:56.102Z,991.47
2024-05-09T09:36:56.102Z,991.49
2024-05-09T09:37:56.069Z,991.50
2024-05-09T09:38:56.123Z,991.51
2024-05-09T09:39:56.033Z,991.50
2024-05-09T09:40:56.153Z,991.52
2024-05-09T09:41:56.010Z,991.53
2024-05-09T09:42:56.040Z,991.51
2024-05-09T09:43:55.966Z,991.50
2024-05-09T09:45:04.210Z,991.50
2024-05-09T09:45:56.035Z,991.46
2024-05-09T09:46:55.991Z,991.45
2024-05-09T09:47:56.046Z,991.44
2024-05-09T09:48:56.031Z,991.43
2024-05-09T09:49:55.923Z,991.42
2024-05-09T09:50:55.901Z,991.40
2024-05-09T09:51:56.057Z,991.38
2024-05-09T09:52:55.893Z,991.37
2024-05-09T09:53:55.855Z,991.36
2024-05-09T09:54:55.921Z,991.37
2024-05-09T09:55:55.864Z,991.37
2024-05-09T09:56:55.851Z,991.36
2024-05-09T09:57:56.168Z,991.32
2024-05-09T09:58:55.846Z,991.33
2024-05-09T09:59:55.807Z,991.32
2024-05-09T10:00:55.907Z,991.34
2024-05-09T10:01:55.832Z,991.37
2024-05-09T10:02:55.791Z,991.36
2024-05-09T10:03:55.915Z,991.36
2024-05-09T10:04:55.863Z,991.36
2024-05-09T10:05:55.888Z,991.39
2024-05-09T10:06:55.767Z,991.38
2024-05-09T10:07:55.772Z,991.39
2024-05-09T10:08:55.745Z,991.36
2024-05-09T10:09:55.742Z,991.33
2024-05-09T10:10:55.799Z,991.30
2024-05-09T10:12:00.158Z,991.28
2024-05-09T10:12:55.702Z,991.30
2024-05-09T10:13:55.675Z,991.31
2024-05-09T10:14:55.671Z,991.28
2024-05-09T10:15:55.692Z,991.31
2024-05-09T10:16:55.653Z,991.32
2024-05-09T10:17:55.747Z,991.31
2024-05-09T10:18:55.763Z,991.30
2024-05-09T10:19:55.649Z,991.30
2024-05-09T10:20:55.665Z,991.27
2024-05-09T10:21:55.627Z,991.25
2024-05-09T10:22:55.585Z,991.24
2024-05-09T10:23:55.539Z,991.24
2024-05-09T10:24:55.552Z,991.21
2024-05-09T10:25:55.529Z,991.16
2024-05-09T10:26:55.526Z,991.10
2024-05-09T10:27:55.606Z,991.13
2024-05-09T10:28:55.504Z,991.10
2024-05-09T10:29:55.610Z,991.10
2024-05-09T10:30:55.563Z,991.17
2024-05-09T10:31:55.514Z,991.15
2024-05-09T10:32:55.487Z,991.14
2024-05-09T10:33:55.796Z,991.14
2024-05-09T10:34:55.527Z,991.13
2024-05-09T10:35:55.450Z,991.12
2024-05-09T10:36:55.813Z,991.11
2024-05-09T10:37:55.385Z,991.09
2024-05-09T10:38:55.383Z,991.05
2024-05-09T10:39:55.541Z,991.06
2024-05-09T10:40:55.356Z,991.03
2024-05-09T10:41:55.375Z,991.02
2024-05-09T10:42:55.379Z,991.04
2024-05-09T10:43:55.335Z,991.06
2024-05-09T10:44:55.328Z,991.06
2024-05-09T10:45:55.318Z,991.06
2024-05-09T10:46:55.368Z,991.04
2024-05-09T10:47:55.458Z,991.02
2024-05-09T10:48:55.446Z,991.02
2024-05-09T10:49:55.388Z,991.02
2024-05-09T10:50:55.261Z,991.04
2024-05-09T10:51:55.321Z,991.04
2024-05-09T10:52:55.299Z,991.03
2024-05-09T10:53:55.245Z,991.05
2024-05-09T10:54:55.240Z,991.04
2024-05-09T10:55:55.201Z,991.05
2024-05-09T10:56:55.190Z,991.05
2024-05-09T10:57:55.222Z,991.04
2024-05-09T10:58:55.173Z,991.02
2024-05-09T10:59:55.174Z,991.01
2024-05-09T11:00:55.345Z,990.97
2024-05-09T11:01:55.200Z,990.91
2024-05-09T11:02:55.220Z,990.84
2024-05-09T11:03:55.287Z,990.76
2024-05-09T11:04:55.166Z,990.82
2024-05-09T11:05:55.159Z,990.84
2024-05-09T11:06:55.179Z,990.85
2024-05-09T11:07:55.096Z,990.86
2024-05-09T11:08:55.090Z,990.84
2024-05-09T11:09:55.140Z,990.80
2024-05-09T11:10:55.170Z,990.79
2024-05-09T11:11:55.079Z,990.78
2024-05-09T11:12:55.129Z,990.77
2024-05-09T11:13:55.055Z,990.76
2024-05-09T11:14:55.027Z,990.76
2024-05-09T11:15:55.149Z,990.76
2024-05-09T11:16:55.015Z,990.74
2024-05-09T11:17:55.131Z,990.69
2024-05-09T11:18:55.359Z,990.67
2024-05-09T11:19:54.993Z,990.69
2024-05-09T11:20:54.952Z,990.66
2024-05-09T11:21:55.027Z,990.67
2024-05-09T11:22:54.914Z,990.67
2024-05-09T11:23:54.920Z,990.69
2024-05-09T11:24:54.992Z,990.69
2024-05-09T11:25:54.898Z,990.66
2024-05-09T11:26:54.925Z,990.66
2024-05-09T11:27:55.002Z,990.61
2024-05-09T11:28:54.854Z,990.61
2024-05-09T11:29:54.859Z,990.59
2024-05-09T11:30:54.919Z,990.59
2024-05-09T11:31:54.903Z,990.59
2024-05-09T11:32:54.882Z,990.58
2024-05-09T11:33:54.930Z,990.54
2024-05-09T11:34:54.804Z,990.52
2024-05-09T11:35:54.780Z,990.53
2024-05-09T11:36:54.831Z,990.55
2024-05-09T11:37:54.759Z,990.58
2024-05-09T11:38:54.783Z,990.58
2024-05-09T11:39:54.903Z,990.62
2024-05-09T11:40:54.806Z,990.61
2024-05-09T11:41:54.739Z,990.62
2024-05-09T11:42:54.786Z,990.64
2024-05-09T11:43:54.713Z,990.58
2024-05-09T11:44:54.680Z,990.57
2024-05-09T11:45:54.796Z,990.54
2024-05-09T11:46:54.659Z,990.51
2024-05-09T11:47:54.766Z,990.48
2024-05-09T11:48:54.783Z,990.46
2024-05-09T11:49:54.829Z,990.44
2024-05-09T11:50:54.630Z,990.35
2024-05-09T11:51:54.635Z,990.40
2024-05-09T11:52:54.606Z,990.40
2024-05-09T11:53:54.596Z,990.40
2024-05-09T11:54:54.714Z,990.40
2024-05-09T11:55:54.578Z,990.41
2024-05-09T11:56:54.560Z,990.38
2024-05-09T11:57:54.759Z,990.37
2024-05-09T11:58:54.554Z,990.35
2024-05-09T11:59:54.549Z,990.36
2024-05-09T12:00:54.600Z,990.34
2024-05-09T12:01:54.597Z,990.31
2024-05-09T12:02:54.533Z,990.32
2024-05-09T12:03:54.677Z,990.29
2024-05-09T12:04:54.604Z,990.27
2024-05-09T12:05:54.572Z,990.26
2024-05-09T12:06:54.477Z,990.26
2024-05-09T12:07:54.441Z,990.27
2024-05-09T12:08:54.470Z,990.24
2024-05-09T12:09:54.457Z,990.23
2024-05-09T12:10:54.617Z,990.23
2024-05-09T12:11:54.453Z,990.23
2024-05-09T12:12:54.432Z,990.23
2024-05-09T12:13:54.429Z,990.22
2024-05-09T12:14:54.427Z,990.20
2024-05-09T12:15:54.465Z,990.18
2024-05-09T12:16:54.395Z,990.17
2024-05-09T12:17:55.835Z,990.18
2024-05-09T12:18:54.424Z,990.15
2024-05-09T12:19:54.325Z,990.13
2024-05-09T12:20:54.350Z,990.13
2024-05-09T12:21:54.372Z,990.13
2024-05-09T12:22:54.298Z,990.10
2024-05-09T12:23:54.280Z,990.14
2024-05-09T12:24:54.454Z,990.10
2024-05-09T12:25:54.273Z,990.11
2024-05-09T12:26:54.259Z,990.07
2024-05-09T12:27:54.321Z,990.05
2024-05-09T12:28:54.238Z,990.09
2024-05-09T12:29:54.224Z,990.10
2024-05-09T12:30:54.228Z,990.10
2024-05-09T12:31:54.270Z,990.09